createdAt,value
2019-02-28T00:00:41.425Z,1.50
2019-02-28T00:03:13.946Z,1.55
2019-02-28T00:05:45.117Z,1.71
2019-02-28T00:08:17.363Z,1.64
2019-02-28T00:10:48.798Z,1.53
2019-02-28T00:13:21.687Z,1.48
2019-02-28T00:15:53.180Z,1.65
2019-02-28T00:18:25.774Z,1.70
2019-02-28T00:20:57.253Z,1.90
2019-02-28T00:23:28.711Z,1.80
2019-02-28T00:25:59.959Z,1.66
2019-02-28T00:28:31.396Z,1.66
2019-02-28T00:31:03.907Z,1.59
2019-02-28T00:33:35.294Z,1.59
2019-02-28T00:36:06.680Z,1.57
2019-02-28T00:38:38.127Z,1.48
2019-02-28T00:41:10.263Z,1.59
2019-02-28T00:43:40.951Z,1.63
2019-02-28T00:46:12.007Z,1.59
2019-02-28T00:48:43.332Z,1.43
2019-02-28T00:51:14.771Z,1.46
2019-02-28T00:53:46.148Z,1.31
2019-02-28T00:56:18.305Z,1.45
2019-02-28T00:58:49.792Z,1.52
2019-02-28T01:01:21.091Z,1.51
2019-02-28T01:03:53.453Z,1.14
2019-02-28T01:06:24.843Z,1.34
2019-02-28T01:08:56.784Z,1.27
2019-02-28T01:11:28.064Z,1.32
2019-02-28T01:14:01.571Z,1.09
2019-02-28T01:16:32.449Z,0.95
2019-02-28T01:19:08.736Z,1.24
2019-02-28T01:21:36.982Z,1.22
2019-02-28T01:24:08.374Z,0.96
2019-02-28T01:26:39.766Z,1.14
2019-02-28T01:29:11.103Z,1.13
2019-02-28T01:31:43.362Z,1.18
2019-02-28T01:34:15.154Z,1.02
2019-02-28T01:36:48.669Z,0.96
2019-02-28T01:39:19.634Z,0.84
2019-02-28T01:41:50.966Z,0.84
2019-02-28T01:44:22.394Z,0.77
2019-02-28T01:46:53.720Z,0.90
2019-02-28T01:49:25.940Z,0.82
2019-02-28T01:51:58.347Z,0.77
2019-02-28T01:54:29.828Z,0.92
2019-02-28T01:57:01.220Z,0.78
2019-02-28T01:59:32.563Z,0.85
2019-02-28T02:02:06.774Z,0.71
2019-02-28T02:04:37.006Z,0.78
2019-02-28T02:07:08.423Z,0.77
2019-02-28T02:09:42.739Z,0.61
2019-02-28T02:12:13.066Z,0.64
2019-02-28T02:14:45.649Z,0.59
2019-02-28T02:17:17.426Z,0.62
2019-02-28T02:19:49.411Z,0.49
2019-02-28T02:22:20.315Z,0.75
2019-02-28T02:24:51.460Z,0.81
2019-02-28T02:27:22.790Z,0.96
2019-02-28T02:29:54.034Z,0.72
2019-02-28T02:32:25.287Z,0.73
2019-02-28T02:34:56.625Z,0.70
2019-02-28T02:37:30.301Z,0.73
2019-02-28T02:40:01.076Z,0.58
2019-02-28T02:42:32.901Z,0.72
2019-02-28T02:45:06.466Z,0.77
2019-02-28T02:47:38.285Z,0.65
2019-02-28T02:50:12.831Z,0.75
2019-02-28T02:52:44.195Z,0.69
2019-02-28T02:55:15.695Z,0.90
2019-02-28T02:57:50.923Z,0.79
2019-02-28T03:00:20.330Z,1.01
2019-02-28T03:02:51.668Z,0.86
2019-02-28T03:05:23.133Z,1.00
2019-02-28T03:07:59.453Z,1.07
2019-02-28T03:10:27.877Z,1.06
2019-02-28T03:12:59.348Z,1.03
2019-02-28T03:15:30.768Z,0.99
2019-02-28T03:18:02.226Z,1.24
2019-02-28T03:20:33.693Z,1.13
2019-02-28T03:23:06.255Z,1.11
2019-02-28T03:25:37.704Z,1.11
2019-02-28T03:28:09.190Z,1.02
2019-02-28T03:30:40.740Z,0.72
2019-02-28T03:33:24.173Z,1.14
2019-02-28T03:35:45.097Z,1.15
2019-02-28T03:38:16.493Z,1.09
2019-02-28T03:40:47.871Z,1.18
2019-02-28T03:43:19.409Z,1.21
2019-02-28T03:45:50.850Z,1.12
2019-02-28T03:48:22.317Z,1.05
2019-02-28T03:50:55.314Z,1.15
2019-02-28T03:53:26.723Z,1.16
2019-02-28T03:55:58.115Z,1.14
2019-02-28T03:58:29.478Z,1.19
2019-02-28T04:01:00.881Z,1.14
2019-02-28T04:03:33.683Z,1.16
2019-02-28T04:06:05.291Z,1.03
2019-02-28T04:08:36.764Z,1.11
2019-02-28T04:11:08.022Z,1.18
2019-02-28T04:13:39.476Z,1.01
2019-02-28T04:16:10.859Z,1.08
2019-02-28T04:18:46.222Z,1.06
2019-02-28T04:21:15.478Z,1.05
2019-02-28T04:23:46.785Z,1.03
2019-02-28T04:26:18.141Z,1.01
2019-02-28T04:28:53.478Z,0.98
2019-02-28T04:31:22.695Z,1.15
2019-02-28T04:33:54.136Z,1.05
2019-02-28T04:36:25.577Z,0.80
2019-02-28T04:38:57.021Z,1.04
2019-02-28T04:41:32.498Z,1.03
2019-02-28T04:44:01.432Z,1.08
2019-02-28T04:46:32.950Z,1.05
2019-02-28T04:49:04.368Z,0.93
2019-02-28T04:51:37.093Z,1.18
2019-02-28T04:54:08.808Z,1.13
2019-02-28T04:56:42.333Z,1.09
2019-02-28T04:59:13.333Z,1.11
2019-02-28T05:01:46.183Z,1.28
2019-02-28T05:04:17.892Z,1.13
2019-02-28T05:06:52.144Z,1.19
2019-02-28T05:09:22.322Z,1.39
2019-02-28T05:11:53.759Z,1.38
2019-02-28T05:14:25.141Z,1.43
2019-02-28T05:16:56.528Z,1.50
2019-02-28T05:19:27.942Z,1.39
2019-02-28T05:21:59.225Z,1.42
2019-02-28T05:24:30.608Z,1.51
2019-02-28T05:27:02.263Z,1.59
2019-02-28T05:29:33.499Z,1.69
2019-02-28T05:32:04.852Z,1.69
2019-02-28T05:34:36.176Z,1.76
2019-02-28T05:37:12.271Z,1.53
2019-02-28T05:39:40.644Z,1.69
2019-02-28T05:42:12.121Z,1.83
2019-02-28T05:44:43.542Z,1.91
2019-02-28T05:47:14.992Z,1.97
2019-02-28T05:49:46.339Z,2.00
2019-02-28T05:52:17.716Z,2.06
2019-02-28T05:54:50.378Z,2.04
2019-02-28T05:57:22.331Z,1.96
2019-02-28T05:59:53.773Z,1.96
2019-02-28T06:02:25.727Z,2.20
2019-02-28T06:04:56.453Z,2.19
2019-02-28T06:07:28.748Z,2.39
2019-02-28T06:10:00.639Z,2.22
2019-02-28T06:12:32.172Z,2.50
2019-02-28T06:15:05.620Z,2.46
2019-02-28T06:17:36.978Z,2.48
2019-02-28T06:20:09.699Z,2.73
2019-02-28T06:22:41.034Z,2.84
2019-02-28T06:25:22.263Z,2.84
2019-02-28T06:27:50.286Z,2.91
2019-02-28T06:30:19.860Z,2.62
2019-02-28T06:32:51.154Z,2.70
2019-02-28T06:35:22.472Z,2.75
2019-02-28T06:37:53.794Z,2.81
2019-02-28T06:40:25.165Z,2.96
2019-02-28T06:42:56.510Z,3.13
2019-02-28T06:45:27.986Z,2.95
2019-02-28T06:47:59.586Z,3.15
2019-02-28T06:50:30.931Z,2.83
2019-02-28T06:53:02.317Z,3.02
2019-02-28T06:55:33.652Z,3.01
2019-02-28T06:58:05.134Z,3.05
2019-02-28T07:00:36.594Z,3.35
2019-02-28T07:03:08.050Z,3.28
2019-02-28T07:05:39.369Z,3.08
2019-02-28T07:08:10.818Z,3.47
2019-02-28T07:10:44.928Z,3.55
2019-02-28T07:13:15.338Z,3.46
2019-02-28T07:15:46.679Z,3.58
2019-02-28T07:18:18.871Z,3.68
2019-02-28T07:20:51.468Z,3.55
2019-02-28T07:23:22.779Z,3.50
2019-02-28T07:25:54.251Z,3.66
2019-02-28T07:28:25.695Z,4.00
2019-02-28T07:30:57.018Z,4.04
2019-02-28T07:33:28.385Z,3.87
2019-02-28T07:35:59.892Z,4.02
2019-02-28T07:38:31.316Z,4.03
2019-02-28T07:41:02.735Z,4.06
2019-02-28T07:43:34.312Z,4.24
2019-02-28T07:46:07.658Z,4.21
2019-02-28T07:48:38.854Z,4.29
2019-02-28T07:51:10.180Z,4.16
2019-02-28T07:53:42.081Z,4.11
2019-02-28T07:56:12.913Z,4.05
2019-02-28T07:58:43.961Z,4.42
2019-02-28T08:01:15.351Z,4.24
2019-02-28T08:03:46.701Z,4.39
2019-02-28T08:06:18.076Z,4.39
2019-02-28T08:08:49.421Z,4.68
2019-02-28T08:11:21.000Z,4.61
2019-02-28T08:13:52.328Z,4.58
2019-02-28T08:16:23.704Z,4.63
2019-02-28T08:18:55.105Z,4.79
2019-02-28T08:21:26.565Z,4.86
2019-02-28T08:23:58.009Z,4.80
2019-02-28T08:26:29.472Z,4.69
2019-02-28T08:29:00.948Z,4.56
2019-02-28T08:31:33.107Z,4.78
2019-02-28T08:34:04.581Z,4.93
2019-02-28T08:36:35.891Z,4.91
2019-02-28T08:39:10.059Z,4.59
2019-02-28T08:41:42.356Z,5.05
2019-02-28T08:44:13.682Z,4.78
2019-02-28T08:46:46.583Z,4.76
2019-02-28T08:49:18.218Z,4.94
2019-02-28T08:51:49.601Z,5.02
2019-02-28T08:54:26.251Z,5.42
2019-02-28T08:56:55.164Z,5.39
2019-02-28T08:59:26.575Z,5.53
2019-02-28T09:01:58.905Z,5.01
2019-02-28T09:04:30.275Z,5.29
2019-02-28T09:07:01.605Z,5.35
2019-02-28T09:09:34.475Z,5.39
2019-02-28T09:12:06.944Z,5.31
2019-02-28T09:14:38.299Z,5.48
2019-02-28T09:17:09.635Z,5.70
2019-02-28T09:19:41.090Z,5.55
2019-02-28T09:22:13.559Z,5.49
2019-02-28T09:24:46.832Z,5.49
2019-02-28T09:27:18.039Z,5.52
2019-02-28T09:29:54.516Z,5.42
2019-02-28T09:32:22.344Z,5.50
2019-02-28T09:34:53.570Z,5.56
2019-02-28T09:37:29.656Z,5.57
2019-02-28T09:39:57.977Z,5.46
2019-02-28T09:42:29.252Z,5.67
2019-02-28T09:45:06.778Z,5.61
2019-02-28T09:47:33.591Z,5.70
2019-02-28T09:50:07.823Z,6.09
2019-02-28T09:52:41.672Z,5.89
2019-02-28T09:55:12.805Z,5.96
2019-02-28T09:57:44.510Z,5.74
2019-02-28T10:00:21.254Z,5.78
2019-02-28T10:02:53.134Z,6.34
2019-02-28T10:05:24.814Z,6.16
2019-02-28T10:08:01.489Z,6.45
2019-02-28T10:10:33.056Z,6.43
2019-02-28T10:13:04.303Z,6.48
2019-02-28T10:15:38.698Z,6.89
2019-02-28T10:18:09.847Z,6.72
2019-02-28T10:20:41.603Z,6.54
2019-02-28T10:23:12.857Z,6.50
2019-02-28T10:25:44.080Z,6.62
2019-02-28T10:28:15.457Z,6.57
2019-02-28T10:30:47.211Z,6.73
2019-02-28T10:33:19.971Z,6.71
2019-02-28T10:35:51.165Z,6.52
2019-02-28T10:38:22.439Z,6.75
2019-02-28T10:40:53.803Z,6.41
2019-02-28T10:43:25.140Z,6.33
2019-02-28T10:45:56.471Z,6.23
2019-02-28T10:48:29.086Z,5.98
2019-02-28T10:51:12.666Z,5.93
2019-02-28T10:53:36.323Z,5.90
2019-02-28T10:56:08.235Z,5.97
2019-02-28T10:58:39.587Z,5.97
2019-02-28T11:01:12.038Z,5.86
2019-02-28T11:03:43.405Z,5.78
2019-02-28T11:06:14.868Z,5.85
2019-02-28T11:08:47.485Z,5.89
2019-02-28T11:11:19.393Z,5.88
2019-02-28T11:13:50.887Z,5.82
2019-02-28T11:16:23.689Z,5.85
2019-02-28T11:18:55.688Z,5.71
2019-02-28T11:21:29.895Z,5.63
2019-02-28T11:24:00.133Z,5.65
2019-02-28T11:26:31.492Z,5.65
2019-02-28T11:29:03.823Z,5.80
2019-02-28T11:31:35.454Z,5.76
2019-02-28T11:34:06.957Z,5.62
2019-02-28T11:36:38.349Z,5.61
2019-02-28T11:39:10.473Z,5.57
2019-02-28T11:41:41.912Z,5.65
2019-02-28T11:44:13.377Z,5.72
2019-02-28T11:46:44.798Z,5.87
2019-02-28T11:49:16.177Z,5.66
2019-02-28T11:51:49.373Z,5.76
2019-02-28T11:54:20.643Z,6.11
2019-02-28T11:56:52.011Z,5.87
2019-02-28T11:59:24.511Z,5.70
2019-02-28T12:01:56.785Z,5.79
2019-02-28T12:04:28.253Z,5.77
2019-02-28T12:07:00.993Z,5.85
2019-02-28T12:09:32.613Z,5.87
2019-02-28T12:12:04.028Z,5.95
2019-02-28T12:14:35.395Z,6.01
2019-02-28T12:17:06.722Z,5.84
2019-02-28T12:19:38.038Z,5.81
2019-02-28T12:22:12.075Z,5.88
2019-02-28T12:24:42.622Z,5.87
2019-02-28T12:27:13.881Z,6.03
2019-02-28T12:29:45.626Z,6.08
2019-02-28T12:32:18.405Z,5.99
2019-02-28T12:34:49.831Z,5.94
2019-02-28T12:37:22.127Z,5.94
2019-02-28T12:39:54.320Z,5.82
2019-02-28T12:42:25.737Z,5.95
2019-02-28T12:44:57.199Z,5.86
2019-02-28T12:47:30.513Z,5.72
2019-02-28T12:50:01.832Z,5.72
2019-02-28T12:52:33.265Z,5.65
2019-02-28T12:55:08.779Z,5.76
2019-02-28T12:57:40.179Z,5.77
2019-02-28T13:00:19.825Z,5.97
2019-02-28T13:02:49.779Z,5.93
2019-02-28T13:05:21.287Z,6.01
2019-02-28T13:07:52.645Z,5.78
2019-02-28T13:10:27.953Z,5.94
2019-02-28T13:13:05.802Z,6.02
2019-02-28T13:15:30.180Z,6.12
2019-02-28T13:18:07.113Z,6.06
2019-02-28T13:20:36.690Z,6.13
2019-02-28T13:23:08.127Z,6.17
2019-02-28T13:25:39.877Z,5.95
2019-02-28T13:28:11.195Z,6.23
2019-02-28T13:30:49.013Z,6.08
2019-02-28T13:33:16.209Z,6.10
2019-02-28T13:35:47.730Z,6.22
2019-02-28T13:38:19.825Z,5.98
2019-02-28T13:40:51.430Z,6.04
2019-02-28T13:43:22.959Z,6.17
2019-02-28T13:45:56.147Z,6.06
2019-02-28T13:48:33.154Z,6.17
2019-02-28T13:51:02.569Z,5.99
2019-02-28T13:53:33.986Z,5.98
2019-02-28T13:56:05.320Z,5.98
2019-02-28T13:58:36.712Z,6.09
2019-02-28T14:01:08.348Z,6.12
2019-02-28T14:03:42.343Z,5.92
2019-02-28T14:06:18.947Z,6.05
2019-02-28T14:08:47.751Z,5.98
2019-02-28T14:11:19.023Z,6.09
2019-02-28T14:13:50.307Z,6.05
2019-02-28T14:16:26.519Z,6.13
2019-02-28T14:18:54.833Z,6.11
2019-02-28T14:21:26.296Z,5.94
2019-02-28T14:23:59.097Z,5.92
2019-02-28T14:26:31.173Z,5.98
2019-02-28T14:29:01.875Z,6.05
2019-02-28T14:31:33.865Z,6.19
2019-02-28T14:34:05.701Z,5.89
2019-02-28T14:36:37.143Z,5.94
2019-02-28T14:39:11.018Z,6.22
2019-02-28T14:41:42.694Z,6.08
2019-02-28T14:44:14.175Z,6.22
2019-02-28T14:46:46.504Z,6.03
2019-02-28T14:49:17.990Z,6.12
2019-02-28T14:51:49.438Z,6.14
2019-02-28T14:54:21.869Z,6.19
2019-02-28T14:56:54.054Z,6.33
2019-02-28T14:59:28.565Z,6.27
2019-02-28T15:01:58.610Z,6.41
2019-02-28T15:04:30.090Z,6.15
2019-02-28T15:07:03.146Z,6.17
2019-02-28T15:09:34.893Z,6.14
2019-02-28T15:12:06.361Z,6.16
2019-02-28T15:14:40.516Z,6.12
2019-02-28T15:17:10.812Z,6.17
2019-02-28T15:19:42.136Z,6.15
2019-02-28T15:22:14.236Z,6.15
2019-02-28T15:24:46.784Z,6.29
2019-02-28T15:27:18.248Z,6.28
2019-02-28T15:29:51.014Z,6.34
2019-02-28T15:32:23.482Z,6.29
2019-02-28T15:34:55.256Z,6.16
2019-02-28T15:37:26.900Z,6.33
2019-02-28T15:39:58.146Z,6.30
2019-02-28T15:42:29.612Z,6.34
2019-02-28T15:45:03.955Z,6.41
2019-02-28T15:47:34.499Z,6.33
2019-02-28T15:50:09.162Z,6.33
2019-02-28T15:52:40.537Z,6.40
2019-02-28T15:55:16.683Z,6.37
2019-02-28T15:57:48.488Z,6.33
2019-02-28T16:00:31.479Z,6.40
2019-02-28T16:03:02.715Z,6.35
2019-02-28T16:05:34.148Z,6.33
2019-02-28T16:08:10.393Z,6.40
2019-02-28T16:10:38.686Z,6.34
2019-02-28T16:13:10.370Z,6.28
2019-02-28T16:15:43.214Z,6.58
2019-02-28T16:18:14.884Z,6.51
2019-02-28T16:20:46.338Z,6.33
2019-02-28T16:23:18.652Z,6.36
2019-02-28T16:25:50.263Z,6.28
2019-02-28T16:28:21.828Z,6.28
2019-02-28T16:30:53.183Z,6.37
2019-02-28T16:33:25.552Z,6.28
2019-02-28T16:35:56.965Z,6.45
2019-02-28T16:38:29.811Z,6.38
2019-02-28T16:41:01.553Z,6.24
2019-02-28T16:43:33.999Z,6.22
2019-02-28T16:46:05.573Z,6.17
2019-02-28T16:48:37.247Z,6.34
2019-02-28T16:51:10.352Z,6.17
2019-02-28T16:53:41.655Z,6.14
2019-02-28T16:56:13.031Z,6.10
2019-02-28T16:58:44.452Z,6.20
2019-02-28T17:01:17.463Z,6.04
2019-02-28T17:03:49.446Z,6.09
2019-02-28T17:06:21.939Z,6.15
2019-02-28T17:08:55.352Z,5.97
2019-02-28T17:11:26.690Z,6.00
2019-02-28T17:14:02.599Z,6.36
2019-02-28T17:16:44.741Z,6.25
2019-02-28T17:19:15.550Z,6.16
2019-02-28T17:21:48.720Z,6.21
2019-02-28T17:24:19.732Z,6.10
2019-02-28T17:26:52.728Z,6.03
2019-02-28T17:29:26.118Z,6.15
2019-02-28T17:31:57.757Z,6.32
2019-02-28T17:34:29.221Z,6.21
2019-02-28T17:37:00.563Z,6.10
2019-02-28T17:39:33.361Z,6.15
2019-02-28T17:42:08.588Z,6.05
2019-02-28T17:44:43.362Z,6.10
2019-02-28T17:47:20.666Z,6.12
2019-02-28T17:50:05.848Z,6.21
2019-02-28T17:53:07.079Z,6.23
2019-02-28T17:55:48.321Z,6.23
2019-02-28T17:58:32.630Z,6.04
2019-02-28T18:01:28.375Z,6.11
2019-02-28T18:04:01.370Z,6.03
2019-02-28T18:07:06.100Z,6.16
2019-02-28T18:09:45.003Z,6.04
2019-02-28T18:12:52.842Z,6.08
2019-02-28T18:15:30.449Z,6.04
2019-02-28T18:18:10.888Z,6.14
2019-02-28T18:20:48.072Z,5.98
2019-02-28T18:23:37.143Z,6.18
2019-02-28T18:26:20.606Z,6.12
2019-02-28T18:28:58.816Z,6.13
2019-02-28T18:31:30.441Z,6.20
2019-02-28T18:34:01.886Z,5.98
2019-02-28T18:36:33.325Z,6.14
2019-02-28T18:39:08.078Z,6.08
2019-02-28T18:41:42.243Z,6.00
2019-02-28T18:44:13.714Z,5.89
2019-02-28T18:46:45.267Z,5.98
2019-02-28T18:49:16.676Z,6.01
2019-02-28T18:51:49.284Z,5.98
2019-02-28T18:54:21.845Z,5.88
2019-02-28T18:56:53.164Z,6.00
2019-02-28T18:59:24.477Z,5.84
2019-02-28T19:01:55.897Z,6.01
2019-02-28T19:04:27.362Z,5.87
2019-02-28T19:06:58.804Z,5.96
2019-02-28T19:09:30.141Z,5.91
2019-02-28T19:12:01.607Z,5.94
2019-02-28T19:14:33.275Z,5.89
2019-02-28T19:17:04.654Z,5.83
2019-02-28T19:19:36.072Z,5.87
2019-02-28T19:22:07.520Z,5.70
2019-02-28T19:24:40.296Z,5.73
2019-02-28T19:27:13.432Z,5.81
2019-02-28T19:29:46.111Z,5.73
2019-02-28T19:32:17.467Z,5.61
2019-02-28T19:34:48.837Z,5.64
2019-02-28T19:37:20.413Z,5.54
2019-02-28T19:39:51.849Z,5.51
2019-02-28T19:42:25.390Z,5.50
2019-02-28T19:44:56.808Z,5.52
2019-02-28T19:47:28.349Z,5.39
2019-02-28T19:49:59.866Z,5.34
2019-02-28T19:52:31.222Z,5.33
2019-02-28T19:55:02.746Z,5.12
2019-02-28T19:57:34.135Z,5.18
2019-02-28T20:00:08.753Z,5.12
2019-02-28T20:02:40.342Z,5.24
2019-02-28T20:05:12.708Z,5.47
2019-02-28T20:07:44.079Z,5.55
2019-02-28T20:10:21.710Z,5.48
2019-02-28T20:12:53.290Z,5.68
2019-02-28T20:15:27.438Z,5.61
2019-02-28T20:18:00.790Z,5.68
2019-02-28T20:20:34.581Z,5.77
2019-02-28T20:23:06.234Z,5.78
2019-02-28T20:25:39.127Z,5.82
2019-02-28T20:28:11.079Z,6.06
2019-02-28T20:30:42.635Z,6.05
2019-02-28T20:33:15.980Z,6.01
2019-02-28T20:35:47.613Z,5.90
2019-02-28T20:38:18.930Z,6.01
2019-02-28T20:40:50.320Z,5.96
2019-02-28T20:43:22.107Z,6.00
2019-02-28T20:45:53.506Z,5.99
2019-02-28T20:48:24.871Z,6.03
2019-02-28T20:50:56.108Z,6.03
2019-02-28T20:53:27.446Z,6.00
2019-02-28T20:55:58.817Z,6.13
2019-02-28T20:58:31.767Z,6.11
2019-02-28T21:01:03.429Z,6.07
2019-02-28T21:03:38.962Z,6.32
2019-02-28T21:06:13.591Z,6.35
2019-02-28T21:08:48.913Z,6.44
2019-02-28T21:11:22.031Z,6.43
2019-02-28T21:13:57.528Z,6.39
2019-02-28T21:16:32.450Z,6.36
2019-02-28T21:19:07.918Z,6.31
2019-02-28T21:21:42.576Z,6.40
2019-02-28T21:24:15.797Z,6.66
2019-02-28T21:26:47.124Z,6.53
2019-02-28T21:29:18.498Z,6.59
2019-02-28T21:31:50.238Z,6.52
2019-02-28T21:34:21.565Z,6.73
2019-02-28T21:36:52.991Z,6.68
2019-02-28T21:39:24.463Z,6.91
2019-02-28T21:41:55.941Z,6.78
2019-02-28T21:44:27.502Z,6.81
2019-02-28T21:46:58.984Z,6.88
2019-02-28T21:49:31.458Z,6.72
2019-02-28T21:52:02.769Z,6.72
2019-02-28T21:54:34.063Z,6.96
2019-02-28T21:57:05.551Z,7.22
2019-02-28T21:59:38.299Z,7.39
2019-02-28T22:02:14.563Z,7.28
2019-02-28T22:04:45.959Z,7.32
2019-02-28T22:07:17.300Z,7.31
2019-02-28T22:09:48.779Z,7.29
2019-02-28T22:12:20.138Z,7.12
2019-02-28T22:14:52.874Z,7.17
2019-02-28T22:17:24.211Z,7.32
2019-02-28T22:19:55.635Z,7.31
2019-02-28T22:22:27.034Z,7.18
2019-02-28T22:24:58.442Z,7.28
2019-02-28T22:27:29.776Z,7.11
2019-02-28T22:30:02.694Z,7.13
2019-02-28T22:32:37.212Z,6.95
2019-02-28T22:35:10.158Z,7.17
2019-02-28T22:37:41.511Z,6.97
2019-02-28T22:40:12.878Z,6.83
2019-02-28T22:42:44.279Z,7.04
2019-02-28T22:45:15.662Z,6.70
2019-02-28T22:47:47.059Z,6.68
2019-02-28T22:50:18.537Z,6.62
2019-02-28T22:52:49.856Z,6.35
2019-02-28T22:55:21.171Z,6.31
2019-02-28T22:57:52.576Z,6.39
2019-02-28T23:00:43.716Z,6.07
2019-02-28T23:03:15.655Z,6.11
2019-02-28T23:05:46.985Z,5.97
2019-02-28T23:08:18.347Z,5.94
2019-02-28T23:10:49.722Z,5.72
2019-02-28T23:13:21.074Z,5.71
2019-02-28T23:15:52.423Z,5.58
2019-02-28T23:18:23.745Z,5.61
2019-02-28T23:20:55.188Z,5.66
2019-02-28T23:23:26.531Z,5.67
2019-02-28T23:26:09.122Z,5.77
2019-02-28T23:28:46.515Z,5.60
2019-02-28T23:31:39.977Z,5.70
2019-02-28T23:34:20.419Z,5.73
2019-02-28T23:36:51.805Z,5.58
2019-02-28T23:39:24.722Z,5.67
2019-02-28T23:41:56.067Z,5.81
2019-02-28T23:44:27.532Z,5.76
2019-02-28T23:46:59.210Z,5.72
2019-02-28T23:49:30.537Z,5.79
2019-02-28T23:52:01.918Z,5.83
2019-02-28T23:54:33.693Z,5.70
2019-02-28T23:57:05.072Z,5.82
2019-02-28T23:59:36.407Z,5.70
